CheckWX is a tool to help pilots better visualize weather data.  It is not intended as a substitute for an official pre-flight weather briefing.

18:19:43 UTC

KSBA TAF
Santa Barbara Municipal Airport
Santa Barbara, California, USA
KSBA 251752Z 2518/2618 VRB03KT P6SM FEW002 SCT150 FM252000 16006KT P6SM SCT150 FM252200 23006KT P6SM SCT150 FM260200 VRB03KT P6SM BKN150

Jan-25@
18:00 UTC

Jan-25 @ 18:00 UTC

Jan-25@
20:00 UTC

Jan-25 @ 20:00 UTC

KSBA 251752Z 2518/2618 VRB03KT P6SM FEW002 SCT150
Wind
  • Variable at 3 KTS
Cloud Levels
  • Few at 200' AGL
  • Scattered at 15,000' AGL

Jan-25@
20:00 UTC

Jan-25 @ 20:00 UTC

Jan-25@
22:00 UTC

Jan-25 @ 22:00 UTC

FM252000 16006KT P6SM SCT150

From

From Standard forecast or significant change

Wind
  • 160° at 6 KTS
Cloud Levels
  • Scattered at 15,000' AGL

Jan-25@
22:00 UTC

Jan-25 @ 22:00 UTC

Jan-26@
02:00 UTC

Jan-26 @ 02:00 UTC

FM252200 23006KT P6SM SCT150

From

From Standard forecast or significant change

Wind
  • 230° at 6 KTS
Cloud Levels
  • Scattered at 15,000' AGL

Jan-26@
02:00 UTC

Jan-26 @ 02:00 UTC

Jan-26@
18:00 UTC

Jan-26 @ 18:00 UTC

FM260200 VRB03KT P6SM BKN150

From

From Standard forecast or significant change

Wind
  • Variable at 3 KTS
Cloud Levels
  • Broken at 15,000' AGL